sensor_id;sensor_type;location;lat;lon;timestamp;pressure;altitude;pressure_sealevel;temperature
72287;BMP180;60221;45.696;16.076;2022-07-03T00:02:19;100918.00;;;21.30
72287;BMP180;60221;45.696;16.076;2022-07-03T00:04:45;100910.00;;;21.30
72287;BMP180;60221;45.696;16.076;2022-07-03T00:07:11;100910.00;;;21.30
72287;BMP180;60221;45.696;16.076;2022-07-03T00:09:37;100915.00;;;21.20
72287;BMP180;60221;45.696;16.076;2022-07-03T00:12:05;100912.00;;;21.20
72287;BMP180;60221;45.696;16.076;2022-07-03T00:14:31;100910.00;;;21.20
72287;BMP180;60221;45.696;16.076;2022-07-03T00:16:58;100922.00;;;21.10
72287;BMP180;60221;45.696;16.076;2022-07-03T00:19:24;100916.00;;;21.00
72287;BMP180;60221;45.696;16.076;2022-07-03T00:21:55;100913.00;;;21.00
72287;BMP180;60221;45.696;16.076;2022-07-03T00:24:37;100916.00;;;21.00
72287;BMP180;60221;45.696;16.076;2022-07-03T00:27:02;100914.00;;;20.90
72287;BMP180;60221;45.696;16.076;2022-07-03T00:29:37;100917.00;;;20.90
72287;BMP180;60221;45.696;16.076;2022-07-03T00:32:11;100918.00;;;20.90
72287;BMP180;60221;45.696;16.076;2022-07-03T00:34:40;100913.00;;;20.80
72287;BMP180;60221;45.696;16.076;2022-07-03T00:37:09;100914.00;;;20.80
72287;BMP180;60221;45.696;16.076;2022-07-03T00:39:38;100914.00;;;20.80
72287;BMP180;60221;45.696;16.076;2022-07-03T00:42:08;100913.00;;;20.80
72287;BMP180;60221;45.696;16.076;2022-07-03T00:44:50;100899.00;;;20.80
72287;BMP180;60221;45.696;16.076;2022-07-03T00:47:21;100903.00;;;20.90
72287;BMP180;60221;45.696;16.076;2022-07-03T00:49:50;100899.00;;;20.90
72287;BMP180;60221;45.696;16.076;2022-07-03T00:52:20;100898.00;;;20.90
72287;BMP180;60221;45.696;16.076;2022-07-03T00:54:55;100891.00;;;20.90
72287;BMP180;60221;45.696;16.076;2022-07-03T00:57:25;100893.00;;;20.80
72287;BMP180;60221;45.696;16.076;2022-07-03T00:59:54;100892.00;;;20.80
72287;BMP180;60221;45.696;16.076;2022-07-03T01:05:35;100884.00;;;20.70
72287;BMP180;60221;45.696;16.076;2022-07-03T01:08:21;100889.00;;;20.70
72287;BMP180;60221;45.696;16.076;2022-07-03T01:19:43;100867.00;;;20.60
72287;BMP180;60221;45.696;16.076;2022-07-03T01:25:24;100860.00;;;20.50
72287;BMP180;60221;45.696;16.076;2022-07-03T01:28:11;100850.00;;;20.50
72287;BMP180;60221;45.696;16.076;2022-07-03T01:33:13;100835.00;;;20.60
72287;BMP180;60221;45.696;16.076;2022-07-03T01:36:06;100824.00;;;20.50
72287;BMP180;60221;45.696;16.076;2022-07-03T01:38:37;100820.00;;;20.60
72287;BMP180;60221;45.696;16.076;2022-07-03T01:41:10;100827.00;;;20.60
72287;BMP180;60221;45.696;16.076;2022-07-03T01:43:49;100825.00;;;20.60
72287;BMP180;60221;45.696;16.076;2022-07-03T01:46:18;100816.00;;;20.60
72287;BMP180;60221;45.696;16.076;2022-07-03T01:48:47;100821.00;;;20.50
72287;BMP180;60221;45.696;16.076;2022-07-03T01:51:16;100823.00;;;20.50
72287;BMP180;60221;45.696;16.076;2022-07-03T01:53:46;100820.00;;;20.50
72287;BMP180;60221;45.696;16.076;2022-07-03T01:56:15;100828.00;;;20.50
72287;BMP180;60221;45.696;16.076;2022-07-03T01:58:43;100821.00;;;20.40
72287;BMP180;60221;45.696;16.076;2022-07-03T02:01:22;100823.00;;;20.40
72287;BMP180;60221;45.696;16.076;2022-07-03T02:09:34;100833.00;;;20.20
72287;BMP180;60221;45.696;16.076;2022-07-03T02:12:11;100832.00;;;20.20
72287;BMP180;60221;45.696;16.076;2022-07-03T02:14:40;100835.00;;;20.20
72287;BMP180;60221;45.696;16.076;2022-07-03T02:19:56;100836.00;;;20.10
72287;BMP180;60221;45.696;16.076;2022-07-03T02:23:12;100832.00;;;20.10
72287;BMP180;60221;45.696;16.076;2022-07-03T02:25:09;100844.00;;;20.10
72287;BMP180;60221;45.696;16.076;2022-07-03T02:30:29;100846.00;;;20.10
72287;BMP180;60221;45.696;16.076;2022-07-03T02:32:59;100844.00;;;20.00
72287;BMP180;60221;45.696;16.076;2022-07-03T02:35:31;100851.00;;;20.00
72287;BMP180;60221;45.696;16.076;2022-07-03T02:38:04;100849.00;;;20.00
72287;BMP180;60221;45.696;16.076;2022-07-03T02:58:27;100857.00;;;19.80
72287;BMP180;60221;45.696;16.076;2022-07-03T03:00:57;100857.00;;;19.80
72287;BMP180;60221;45.696;16.076;2022-07-03T03:03:29;100865.00;;;19.90
72287;BMP180;60221;45.696;16.076;2022-07-03T03:06:02;100868.00;;;19.90
72287;BMP180;60221;45.696;16.076;2022-07-03T03:08:48;100868.00;;;19.90
72287;BMP180;60221;45.696;16.076;2022-07-03T03:11:41;100870.00;;;19.90
72287;BMP180;60221;45.696;16.076;2022-07-03T03:14:10;100867.00;;;19.90
72287;BMP180;60221;45.696;16.076;2022-07-03T03:16:47;100870.00;;;19.90
72287;BMP180;60221;45.696;16.076;2022-07-03T03:19:14;100873.00;;;19.90
72287;BMP180;60221;45.696;16.076;2022-07-03T03:22:28;100868.00;;;19.90
72287;BMP180;60221;45.696;16.076;2022-07-03T03:24:20;100867.00;;;19.90
72287;BMP180;60221;45.696;16.076;2022-07-03T03:26:48;100870.00;;;19.90
72287;BMP180;60221;45.696;16.076;2022-07-03T03:29:14;100872.00;;;19.90
72287;BMP180;60221;45.696;16.076;2022-07-03T03:31:40;100873.00;;;20.00
72287;BMP180;60221;45.696;16.076;2022-07-03T03:34:07;100880.00;;;20.00
72287;BMP180;60221;45.696;16.076;2022-07-03T03:36:36;100872.00;;;20.10
72287;BMP180;60221;45.696;16.076;2022-07-03T03:39:03;100861.00;;;20.20
72287;BMP180;60221;45.696;16.076;2022-07-03T03:41:29;100862.00;;;20.30
72287;BMP180;60221;45.696;16.076;2022-07-03T03:43:55;100865.00;;;20.50
72287;BMP180;60221;45.696;16.076;2022-07-03T03:46:21;100862.00;;;20.60
72287;BMP180;60221;45.696;16.076;2022-07-03T03:48:48;100859.00;;;20.80
72287;BMP180;60221;45.696;16.076;2022-07-03T03:51:15;100854.00;;;20.90
72287;BMP180;60221;45.696;16.076;2022-07-03T03:53:41;100865.00;;;21.10
72287;BMP180;60221;45.696;16.076;2022-07-03T03:56:27;100856.00;;;21.20
72287;BMP180;60221;45.696;16.076;2022-07-03T03:58:53;100852.00;;;21.40
72287;BMP180;60221;45.696;16.076;2022-07-03T04:01:19;100862.00;;;21.60
72287;BMP180;60221;45.696;16.076;2022-07-03T04:03:45;100859.00;;;21.70
72287;BMP180;60221;45.696;16.076;2022-07-03T04:06:11;100857.00;;;21.80
72287;BMP180;60221;45.696;16.076;2022-07-03T04:08:37;100863.00;;;21.90
72287;BMP180;60221;45.696;16.076;2022-07-03T04:11:03;100856.00;;;22.10
72287;BMP180;60221;45.696;16.076;2022-07-03T04:13:29;100853.00;;;22.50
72287;BMP180;60221;45.696;16.076;2022-07-03T04:15:56;100849.00;;;23.10
72287;BMP180;60221;45.696;16.076;2022-07-03T04:18:22;100853.00;;;23.80
72287;BMP180;60221;45.696;16.076;2022-07-03T04:20:49;100850.00;;;24.40
72287;BMP180;60221;45.696;16.076;2022-07-03T04:23:16;100850.00;;;24.60
72287;BMP180;60221;45.696;16.076;2022-07-03T04:25:42;100855.00;;;24.40
72287;BMP180;60221;45.696;16.076;2022-07-03T04:28:09;100853.00;;;24.20
72287;BMP180;60221;45.696;16.076;2022-07-03T04:30:36;100855.00;;;24.10
72287;BMP180;60221;45.696;16.076;2022-07-03T04:33:02;100863.00;;;24.00
72287;BMP180;60221;45.696;16.076;2022-07-03T04:35:28;100860.00;;;23.90
72287;BMP180;60221;45.696;16.076;2022-07-03T04:37:55;100865.00;;;23.80
72287;BMP180;60221;45.696;16.076;2022-07-03T04:40:21;100865.00;;;23.70
72287;BMP180;60221;45.696;16.076;2022-07-03T04:42:47;100854.00;;;23.70
72287;BMP180;60221;45.696;16.076;2022-07-03T04:45:15;100859.00;;;23.60
72287;BMP180;60221;45.696;16.076;2022-07-03T04:47:41;100854.00;;;23.60
72287;BMP180;60221;45.696;16.076;2022-07-03T04:50:08;100861.00;;;23.60
72287;BMP180;60221;45.696;16.076;2022-07-03T04:52:34;100858.00;;;23.60
72287;BMP180;60221;45.696;16.076;2022-07-03T04:55:01;100865.00;;;23.60
72287;BMP180;60221;45.696;16.076;2022-07-03T04:57:27;100858.00;;;23.60
72287;BMP180;60221;45.696;16.076;2022-07-03T04:59:54;100866.00;;;23.70
72287;BMP180;60221;45.696;16.076;2022-07-03T05:02:20;100863.00;;;23.70
72287;BMP180;60221;45.696;16.076;2022-07-03T05:04:46;100868.00;;;23.80
72287;BMP180;60221;45.696;16.076;2022-07-03T05:07:12;100860.00;;;23.90
72287;BMP180;60221;45.696;16.076;2022-07-03T05:09:38;100857.00;;;24.00
72287;BMP180;60221;45.696;16.076;2022-07-03T05:12:06;100856.00;;;24.10
72287;BMP180;60221;45.696;16.076;2022-07-03T05:14:32;100854.00;;;24.50
72287;BMP180;60221;45.696;16.076;2022-07-03T05:16:58;100861.00;;;24.80
72287;BMP180;60221;45.696;16.076;2022-07-03T05:19:24;100858.00;;;25.10
72287;BMP180;60221;45.696;16.076;2022-07-03T05:21:50;100844.00;;;25.90
72287;BMP180;60221;45.696;16.076;2022-07-03T05:24:17;100849.00;;;26.90
72287;BMP180;60221;45.696;16.076;2022-07-03T05:26:43;100844.00;;;27.00
72287;BMP180;60221;45.696;16.076;2022-07-03T05:29:09;100835.00;;;28.10
72287;BMP180;60221;45.696;16.076;2022-07-03T05:31:35;100834.00;;;29.20
72287;BMP180;60221;45.696;16.076;2022-07-03T05:34:01;100831.00;;;30.00
72287;BMP180;60221;45.696;16.076;2022-07-03T05:36:27;100825.00;;;30.10
72287;BMP180;60221;45.696;16.076;2022-07-03T05:38:53;100833.00;;;29.90
72287;BMP180;60221;45.696;16.076;2022-07-03T05:41:38;100816.00;;;30.40
72287;BMP180;60221;45.696;16.076;2022-07-03T05:44:04;100813.00;;;31.00
72287;BMP180;60221;45.696;16.076;2022-07-03T05:46:30;100821.00;;;31.70
72287;BMP180;60221;45.696;16.076;2022-07-03T05:48:56;100821.00;;;31.90
72287;BMP180;60221;45.696;16.076;2022-07-03T05:51:22;100814.00;;;32.00
72287;BMP180;60221;45.696;16.076;2022-07-03T05:53:48;100809.00;;;32.50
72287;BMP180;60221;45.696;16.076;2022-07-03T05:56:14;100800.00;;;32.90
72287;BMP180;60221;45.696;16.076;2022-07-03T05:58:40;100809.00;;;32.80
72287;BMP180;60221;45.696;16.076;2022-07-03T06:01:07;100809.00;;;32.90
72287;BMP180;60221;45.696;16.076;2022-07-03T06:03:33;100815.00;;;33.20
72287;BMP180;60221;45.696;16.076;2022-07-03T06:05:59;100809.00;;;33.40
72287;BMP180;60221;45.696;16.076;2022-07-03T06:08:25;100811.00;;;33.70
72287;BMP180;60221;45.696;16.076;2022-07-03T06:10:52;100810.00;;;33.80
72287;BMP180;60221;45.696;16.076;2022-07-03T06:13:19;100816.00;;;33.80
72287;BMP180;60221;45.696;16.076;2022-07-03T06:15:45;100825.00;;;33.90
72287;BMP180;60221;45.696;16.076;2022-07-03T06:18:11;100818.00;;;34.00
72287;BMP180;60221;45.696;16.076;2022-07-03T06:20:37;100823.00;;;33.90
72287;BMP180;60221;45.696;16.076;2022-07-03T06:23:03;100820.00;;;33.80
72287;BMP180;60221;45.696;16.076;2022-07-03T06:25:29;100814.00;;;33.70
72287;BMP180;60221;45.696;16.076;2022-07-03T06:27:55;100818.00;;;33.90
72287;BMP180;60221;45.696;16.076;2022-07-03T06:30:21;100817.00;;;34.00
72287;BMP180;60221;45.696;16.076;2022-07-03T06:32:48;100825.00;;;33.90
72287;BMP180;60221;45.696;16.076;2022-07-03T06:35:14;100821.00;;;33.90
72287;BMP180;60221;45.696;16.076;2022-07-03T06:37:40;100818.00;;;33.90
72287;BMP180;60221;45.696;16.076;2022-07-03T06:40:07;100815.00;;;33.90
72287;BMP180;60221;45.696;16.076;2022-07-03T06:42:34;100817.00;;;34.10
72287;BMP180;60221;45.696;16.076;2022-07-03T06:45:01;100815.00;;;34.20
72287;BMP180;60221;45.696;16.076;2022-07-03T06:47:28;100817.00;;;34.20
72287;BMP180;60221;45.696;16.076;2022-07-03T06:49:54;100815.00;;;34.10
72287;BMP180;60221;45.696;16.076;2022-07-03T06:52:20;100811.00;;;34.20
72287;BMP180;60221;45.696;16.076;2022-07-03T06:54:46;100810.00;;;34.30
72287;BMP180;60221;45.696;16.076;2022-07-03T06:57:13;100814.00;;;34.40
72287;BMP180;60221;45.696;16.076;2022-07-03T06:59:40;100818.00;;;34.40
72287;BMP180;60221;45.696;16.076;2022-07-03T07:02:07;100812.00;;;34.50
72287;BMP180;60221;45.696;16.076;2022-07-03T07:04:33;100811.00;;;34.60
72287;BMP180;60221;45.696;16.076;2022-07-03T07:07:00;100814.00;;;34.70
72287;BMP180;60221;45.696;16.076;2022-07-03T07:09:26;100816.00;;;34.70
72287;BMP180;60221;45.696;16.076;2022-07-03T07:11:59;100814.00;;;34.60
72287;BMP180;60221;45.696;16.076;2022-07-03T07:14:26;100821.00;;;34.50
72287;BMP180;60221;45.696;16.076;2022-07-03T07:16:53;100820.00;;;34.50
72287;BMP180;60221;45.696;16.076;2022-07-03T07:19:19;100815.00;;;34.70
72287;BMP180;60221;45.696;16.076;2022-07-03T07:21:45;100812.00;;;34.70
72287;BMP180;60221;45.696;16.076;2022-07-03T07:24:11;100806.00;;;34.70
72287;BMP180;60221;45.696;16.076;2022-07-03T07:26:38;100806.00;;;34.70
72287;BMP180;60221;45.696;16.076;2022-07-03T07:29:04;100804.00;;;34.70
72287;BMP180;60221;45.696;16.076;2022-07-03T07:31:31;100806.00;;;34.80
72287;BMP180;60221;45.696;16.076;2022-07-03T07:33:57;100804.00;;;34.90
72287;BMP180;60221;45.696;16.076;2022-07-03T07:36:23;100800.00;;;34.90
72287;BMP180;60221;45.696;16.076;2022-07-03T07:38:49;100800.00;;;34.80
72287;BMP180;60221;45.696;16.076;2022-07-03T07:41:15;100808.00;;;34.70
72287;BMP180;60221;45.696;16.076;2022-07-03T07:43:42;100807.00;;;34.70
72287;BMP180;60221;45.696;16.076;2022-07-03T07:46:08;100808.00;;;34.40
72287;BMP180;60221;45.696;16.076;2022-07-03T07:48:35;100804.00;;;34.30
72287;BMP180;60221;45.696;16.076;2022-07-03T07:51:01;100812.00;;;34.20
72287;BMP180;60221;45.696;16.076;2022-07-03T07:53:27;100808.00;;;34.10
72287;BMP180;60221;45.696;16.076;2022-07-03T07:55:53;100814.00;;;33.90
72287;BMP180;60221;45.696;16.076;2022-07-03T07:58:19;100813.00;;;33.80
72287;BMP180;60221;45.696;16.076;2022-07-03T08:00:48;100818.00;;;33.70
72287;BMP180;60221;45.696;16.076;2022-07-03T08:03:33;100810.00;;;33.50
72287;BMP180;60221;45.696;16.076;2022-07-03T08:06:18;100808.00;;;33.20
72287;BMP180;60221;45.696;16.076;2022-07-03T08:08:44;100814.00;;;33.00
72287;BMP180;60221;45.696;16.076;2022-07-03T08:11:24;100818.00;;;32.80
72287;BMP180;60221;45.696;16.076;2022-07-03T08:13:52;100823.00;;;32.80
72287;BMP180;60221;45.696;16.076;2022-07-03T08:16:18;100826.00;;;32.70
72287;BMP180;60221;45.696;16.076;2022-07-03T08:18:45;100821.00;;;32.60
72287;BMP180;60221;45.696;16.076;2022-07-03T08:21:11;100816.00;;;32.60
72287;BMP180;60221;45.696;16.076;2022-07-03T08:23:37;100823.00;;;32.60
72287;BMP180;60221;45.696;16.076;2022-07-03T08:26:04;100827.00;;;32.40
72287;BMP180;60221;45.696;16.076;2022-07-03T08:28:31;100828.00;;;32.30
72287;BMP180;60221;45.696;16.076;2022-07-03T08:30:57;100835.00;;;32.20
72287;BMP180;60221;45.696;16.076;2022-07-03T08:33:23;100831.00;;;32.30
72287;BMP180;60221;45.696;16.076;2022-07-03T08:35:49;100830.00;;;32.30
72287;BMP180;60221;45.696;16.076;2022-07-03T08:38:15;100823.00;;;32.30
72287;BMP180;60221;45.696;16.076;2022-07-03T08:40:43;100823.00;;;32.40
72287;BMP180;60221;45.696;16.076;2022-07-03T08:43:10;100818.00;;;32.40
72287;BMP180;60221;45.696;16.076;2022-07-03T08:45:37;100813.00;;;32.30
72287;BMP180;60221;45.696;16.076;2022-07-03T08:48:07;100805.00;;;32.10
72287;BMP180;60221;45.696;16.076;2022-07-03T08:50:34;100808.00;;;32.10
72287;BMP180;60221;45.696;16.076;2022-07-03T08:53:04;100813.00;;;32.00
72287;BMP180;60221;45.696;16.076;2022-07-03T08:55:30;100811.00;;;32.00
72287;BMP180;60221;45.696;16.076;2022-07-03T08:57:58;100818.00;;;32.00
72287;BMP180;60221;45.696;16.076;2022-07-03T09:00:27;100814.00;;;32.00
72287;BMP180;60221;45.696;16.076;2022-07-03T09:02:55;100814.00;;;32.10
72287;BMP180;60221;45.696;16.076;2022-07-03T09:05:22;100804.00;;;32.00
72287;BMP180;60221;45.696;16.076;2022-07-03T09:07:48;100806.00;;;32.00
72287;BMP180;60221;45.696;16.076;2022-07-03T09:10:16;100815.00;;;32.10
72287;BMP180;60221;45.696;16.076;2022-07-03T09:12:47;100814.00;;;32.10
72287;BMP180;60221;45.696;16.076;2022-07-03T09:15:15;100810.00;;;32.10
72287;BMP180;60221;45.696;16.076;2022-07-03T09:18:07;100815.00;;;32.10
72287;BMP180;60221;45.696;16.076;2022-07-03T09:20:33;100819.00;;;32.00
72287;BMP180;60221;45.696;16.076;2022-07-03T09:23:16;100810.00;;;32.10
72287;BMP180;60221;45.696;16.076;2022-07-03T09:25:51;100806.00;;;32.20
72287;BMP180;60221;45.696;16.076;2022-07-03T09:28:48;100807.00;;;32.20
72287;BMP180;60221;45.696;16.076;2022-07-03T09:31:26;100804.00;;;32.20
72287;BMP180;60221;45.696;16.076;2022-07-03T09:34:02;100799.00;;;32.20
72287;BMP180;60221;45.696;16.076;2022-07-03T09:36:47;100800.00;;;32.20
72287;BMP180;60221;45.696;16.076;2022-07-03T09:39:16;100797.00;;;32.10
72287;BMP180;60221;45.696;16.076;2022-07-03T09:44:41;100793.00;;;32.20
72287;BMP180;60221;45.696;16.076;2022-07-03T09:47:24;100787.00;;;32.20
72287;BMP180;60221;45.696;16.076;2022-07-03T09:49:53;100794.00;;;32.30
72287;BMP180;60221;45.696;16.076;2022-07-03T10:00:35;100792.00;;;32.00
72287;BMP180;60221;45.696;16.076;2022-07-03T10:03:07;100787.00;;;32.10
72287;BMP180;60221;45.696;16.076;2022-07-03T10:05:42;100796.00;;;32.20
72287;BMP180;60221;45.696;16.076;2022-07-03T10:08:15;100789.00;;;32.30
72287;BMP180;60221;45.696;16.076;2022-07-03T10:10:45;100786.00;;;32.30
72287;BMP180;60221;45.696;16.076;2022-07-03T10:13:13;100783.00;;;32.30
72287;BMP180;60221;45.696;16.076;2022-07-03T10:15:40;100784.00;;;32.30
72287;BMP180;60221;45.696;16.076;2022-07-03T10:18:09;100784.00;;;32.40
72287;BMP180;60221;45.696;16.076;2022-07-03T10:20:48;100777.00;;;32.50
72287;BMP180;60221;45.696;16.076;2022-07-03T10:23:16;100772.00;;;32.60
72287;BMP180;60221;45.696;16.076;2022-07-03T10:25:44;100773.00;;;32.70
72287;BMP180;60221;45.696;16.076;2022-07-03T10:28:14;100763.00;;;32.70
72287;BMP180;60221;45.696;16.076;2022-07-03T10:30:48;100766.00;;;32.60
72287;BMP180;60221;45.696;16.076;2022-07-03T10:33:15;100757.00;;;32.70
72287;BMP180;60221;45.696;16.076;2022-07-03T10:35:52;100759.00;;;32.70
72287;BMP180;60221;45.696;16.076;2022-07-03T10:38:41;100752.00;;;32.70
72287;BMP180;60221;45.696;16.076;2022-07-03T10:41:32;100748.00;;;32.60
72287;BMP180;60221;45.696;16.076;2022-07-03T10:44:21;100748.00;;;32.60
72287;BMP180;60221;45.696;16.076;2022-07-03T10:50:11;100747.00;;;32.60
72287;BMP180;60221;45.696;16.076;2022-07-03T10:52:41;100751.00;;;32.60
72287;BMP180;60221;45.696;16.076;2022-07-03T10:55:10;100754.00;;;32.70
72287;BMP180;60221;45.696;16.076;2022-07-03T10:57:38;100745.00;;;32.70
72287;BMP180;60221;45.696;16.076;2022-07-03T11:00:14;100744.00;;;32.80
72287;BMP180;60221;45.696;16.076;2022-07-03T11:02:48;100743.00;;;32.90
72287;BMP180;60221;45.696;16.076;2022-07-03T11:05:21;100739.00;;;32.90
72287;BMP180;60221;45.696;16.076;2022-07-03T11:12:59;100734.00;;;32.70
72287;BMP180;60221;45.696;16.076;2022-07-03T11:15:47;100739.00;;;32.70
72287;BMP180;60221;45.696;16.076;2022-07-03T11:18:18;100734.00;;;32.70
72287;BMP180;60221;45.696;16.076;2022-07-03T11:23:32;100728.00;;;32.80
72287;BMP180;60221;45.696;16.076;2022-07-03T11:26:22;100732.00;;;32.80
72287;BMP180;60221;45.696;16.076;2022-07-03T11:39:02;100711.00;;;33.20
72287;BMP180;60221;45.696;16.076;2022-07-03T11:44:07;100703.00;;;33.10
72287;BMP180;60221;45.696;16.076;2022-07-03T11:46:37;100709.00;;;33.10
72287;BMP180;60221;45.696;16.076;2022-07-03T11:49:09;100715.00;;;33.10
72287;BMP180;60221;45.696;16.076;2022-07-03T11:51:52;100707.00;;;33.10
72287;BMP180;60221;45.696;16.076;2022-07-03T11:54:22;100701.00;;;33.00
72287;BMP180;60221;45.696;16.076;2022-07-03T11:56:48;100704.00;;;33.00
72287;BMP180;60221;45.696;16.076;2022-07-03T11:59:14;100706.00;;;33.00
72287;BMP180;60221;45.696;16.076;2022-07-03T12:01:41;100704.00;;;33.00
72287;BMP180;60221;45.696;16.076;2022-07-03T12:04:19;100700.00;;;33.00
72287;BMP180;60221;45.696;16.076;2022-07-03T12:06:55;100700.00;;;33.10
72287;BMP180;60221;45.696;16.076;2022-07-03T12:09:35;100706.00;;;33.20
72287;BMP180;60221;45.696;16.076;2022-07-03T12:12:03;100696.00;;;33.30
72287;BMP180;60221;45.696;16.076;2022-07-03T12:17:17;100693.00;;;33.30
72287;BMP180;60221;45.696;16.076;2022-07-03T12:19:46;100683.00;;;33.20
72287;BMP180;60221;45.696;16.076;2022-07-03T12:25:07;100681.00;;;33.20
72287;BMP180;60221;45.696;16.076;2022-07-03T12:27:39;100676.00;;;33.20
72287;BMP180;60221;45.696;16.076;2022-07-03T12:30:12;100681.00;;;33.10
72287;BMP180;60221;45.696;16.076;2022-07-03T12:32:45;100683.00;;;33.10
72287;BMP180;60221;45.696;16.076;2022-07-03T12:35:12;100673.00;;;33.20
72287;BMP180;60221;45.696;16.076;2022-07-03T12:37:43;100673.00;;;33.20
72287;BMP180;60221;45.696;16.076;2022-07-03T12:40:11;100676.00;;;33.30
72287;BMP180;60221;45.696;16.076;2022-07-03T12:42:48;100672.00;;;33.30
72287;BMP180;60221;45.696;16.076;2022-07-03T12:45:27;100668.00;;;33.40
72287;BMP180;60221;45.696;16.076;2022-07-03T12:48:04;100676.00;;;33.50
72287;BMP180;60221;45.696;16.076;2022-07-03T12:50:48;100673.00;;;33.40
72287;BMP180;60221;45.696;16.076;2022-07-03T12:53:29;100668.00;;;33.40
72287;BMP180;60221;45.696;16.076;2022-07-03T12:56:02;100666.00;;;33.40
72287;BMP180;60221;45.696;16.076;2022-07-03T12:58:30;100663.00;;;33.50
72287;BMP180;60221;45.696;16.076;2022-07-03T13:01:32;100656.00;;;33.50
72287;BMP180;60221;45.696;16.076;2022-07-03T13:04:04;100655.00;;;33.60
72287;BMP180;60221;45.696;16.076;2022-07-03T13:06:32;100642.00;;;33.60
72287;BMP180;60221;45.696;16.076;2022-07-03T13:09:04;100642.00;;;33.70
72287;BMP180;60221;45.696;16.076;2022-07-03T13:11:32;100654.00;;;33.70
72287;BMP180;60221;45.696;16.076;2022-07-03T13:14:13;100643.00;;;33.70
72287;BMP180;60221;45.696;16.076;2022-07-03T13:16:43;100642.00;;;33.60
72287;BMP180;60221;45.696;16.076;2022-07-03T13:19:14;100646.00;;;33.50
72287;BMP180;60221;45.696;16.076;2022-07-03T13:21:43;100636.00;;;33.50
72287;BMP180;60221;45.696;16.076;2022-07-03T13:24:11;100640.00;;;33.50
72287;BMP180;60221;45.696;16.076;2022-07-03T13:26:39;100644.00;;;33.50
72287;BMP180;60221;45.696;16.076;2022-07-03T13:29:07;100647.00;;;33.50
72287;BMP180;60221;45.696;16.076;2022-07-03T13:31:33;100635.00;;;33.60
72287;BMP180;60221;45.696;16.076;2022-07-03T13:34:00;100639.00;;;33.70
72287;BMP180;60221;45.696;16.076;2022-07-03T13:36:28;100635.00;;;33.80
72287;BMP180;60221;45.696;16.076;2022-07-03T13:38:56;100638.00;;;33.80
72287;BMP180;60221;45.696;16.076;2022-07-03T13:41:22;100640.00;;;33.70
72287;BMP180;60221;45.696;16.076;2022-07-03T13:43:50;100640.00;;;33.80
72287;BMP180;60221;45.696;16.076;2022-07-03T13:46:19;100640.00;;;33.80
72287;BMP180;60221;45.696;16.076;2022-07-03T13:48:51;100630.00;;;33.80
72287;BMP180;60221;45.696;16.076;2022-07-03T13:51:19;100627.00;;;33.90
72287;BMP180;60221;45.696;16.076;2022-07-03T13:53:46;100630.00;;;33.80
72287;BMP180;60221;45.696;16.076;2022-07-03T13:56:16;100630.00;;;33.70
72287;BMP180;60221;45.696;16.076;2022-07-03T13:58:43;100626.00;;;33.60
72287;BMP180;60221;45.696;16.076;2022-07-03T14:01:10;100629.00;;;33.70
72287;BMP180;60221;45.696;16.076;2022-07-03T14:03:40;100633.00;;;33.80
72287;BMP180;60221;45.696;16.076;2022-07-03T14:06:07;100626.00;;;33.80
72287;BMP180;60221;45.696;16.076;2022-07-03T14:08:35;100617.00;;;33.80
72287;BMP180;60221;45.696;16.076;2022-07-03T14:11:01;100618.00;;;33.70
72287;BMP180;60221;45.696;16.076;2022-07-03T14:13:27;100618.00;;;33.60
72287;BMP180;60221;45.696;16.076;2022-07-03T14:15:53;100627.00;;;33.60
72287;BMP180;60221;45.696;16.076;2022-07-03T14:18:19;100621.00;;;33.70
72287;BMP180;60221;45.696;16.076;2022-07-03T14:20:45;100623.00;;;33.70
72287;BMP180;60221;45.696;16.076;2022-07-03T14:23:11;100616.00;;;33.80
72287;BMP180;60221;45.696;16.076;2022-07-03T14:25:37;100615.00;;;33.90
72287;BMP180;60221;45.696;16.076;2022-07-03T14:28:14;100616.00;;;34.00
72287;BMP180;60221;45.696;16.076;2022-07-03T14:30:59;100609.00;;;33.90
72287;BMP180;60221;45.696;16.076;2022-07-03T14:33:43;100614.00;;;33.80
72287;BMP180;60221;45.696;16.076;2022-07-03T14:36:09;100608.00;;;33.70
72287;BMP180;60221;45.696;16.076;2022-07-03T14:38:36;100614.00;;;33.70
72287;BMP180;60221;45.696;16.076;2022-07-03T14:41:02;100617.00;;;33.70
72287;BMP180;60221;45.696;16.076;2022-07-03T14:43:28;100612.00;;;33.70
72287;BMP180;60221;45.696;16.076;2022-07-03T14:45:55;100610.00;;;33.70
72287;BMP180;60221;45.696;16.076;2022-07-03T14:48:21;100607.00;;;33.70
72287;BMP180;60221;45.696;16.076;2022-07-03T14:50:47;100602.00;;;33.60
72287;BMP180;60221;45.696;16.076;2022-07-03T14:53:13;100596.00;;;33.60
72287;BMP180;60221;45.696;16.076;2022-07-03T14:55:40;100600.00;;;33.60
72287;BMP180;60221;45.696;16.076;2022-07-03T14:58:18;100599.00;;;33.60
72287;BMP180;60221;45.696;16.076;2022-07-03T15:00:50;100590.00;;;33.50
72287;BMP180;60221;45.696;16.076;2022-07-03T15:03:30;100592.00;;;33.50
72287;BMP180;60221;45.696;16.076;2022-07-03T15:06:07;100579.00;;;33.50
72287;BMP180;60221;45.696;16.076;2022-07-03T15:11:11;100587.00;;;33.50
72287;BMP180;60221;45.696;16.076;2022-07-03T15:14:01;100595.00;;;33.50
72287;BMP180;60221;45.696;16.076;2022-07-03T15:16:32;100580.00;;;33.40
72287;BMP180;60221;45.696;16.076;2022-07-03T15:19:00;100586.00;;;33.40
72287;BMP180;60221;45.696;16.076;2022-07-03T15:21:31;100587.00;;;33.40
72287;BMP180;60221;45.696;16.076;2022-07-03T15:24:00;100587.00;;;33.50
72287;BMP180;60221;45.696;16.076;2022-07-03T15:26:31;100591.00;;;33.60
72287;BMP180;60221;45.696;16.076;2022-07-03T15:29:00;100580.00;;;33.50
72287;BMP180;60221;45.696;16.076;2022-07-03T15:31:28;100577.00;;;33.50